createdAt,value
2019-05-18T00:01:39.370Z,91.30
2019-05-18T00:04:23.962Z,91.10
2019-05-18T00:07:08.719Z,90.60
2019-05-18T00:09:53.322Z,90.30
2019-05-18T00:12:38.150Z,90.00
2019-05-18T00:15:23.089Z,90.30
2019-05-18T00:18:07.797Z,90.80
2019-05-18T00:20:52.550Z,91.30
2019-05-18T00:23:37.566Z,91.70
2019-05-18T00:26:22.586Z,92.10
2019-05-18T00:29:07.049Z,92.20
2019-05-18T00:31:51.589Z,92.70
2019-05-18T00:34:45.342Z,93.00
2019-05-18T00:37:39.462Z,93.00
2019-05-18T00:40:33.494Z,93.10
2019-05-18T00:43:18.551Z,93.20
2019-05-18T00:46:13.040Z,93.10
2019-05-18T00:49:08.326Z,93.10
2019-05-18T00:52:01.965Z,93.00
2019-05-18T00:54:46.374Z,93.10
2019-05-18T00:57:31.347Z,93.00
2019-05-18T01:00:15.974Z,92.60
2019-05-18T01:03:00.867Z,92.30
2019-05-18T01:05:45.484Z,92.30
2019-05-18T01:08:29.810Z,92.70
2019-05-18T01:11:23.199Z,92.90
2019-05-18T01:14:08.031Z,93.00
2019-05-18T01:16:52.801Z,92.80
2019-05-18T01:19:37.866Z,92.50
2019-05-18T01:22:22.418Z,92.40
2019-05-18T01:25:06.702Z,92.40
2019-05-18T01:27:51.262Z,92.30
2019-05-18T01:30:44.450Z,92.30
2019-05-18T01:33:29.236Z,92.10
2019-05-18T01:36:13.705Z,92.10
2019-05-18T01:38:58.209Z,92.30
2019-05-18T01:41:51.908Z,92.30
2019-05-18T01:44:36.041Z,92.30
2019-05-18T01:47:21.175Z,92.40
2019-05-18T01:50:05.927Z,92.20
2019-05-18T01:52:50.205Z,92.20
2019-05-18T01:55:44.806Z,92.30
2019-05-18T01:58:29.282Z,92.40
2019-05-18T02:01:14.129Z,92.60
2019-05-18T02:03:58.881Z,92.50
2019-05-18T02:06:43.733Z,92.00
2019-05-18T02:09:28.402Z,91.60
2019-05-18T02:12:13.113Z,91.60
2019-05-18T02:14:57.661Z,91.40
2019-05-18T02:17:51.262Z,91.50
2019-05-18T02:20:36.208Z,91.70
2019-05-18T02:23:30.074Z,92.00
2019-05-18T02:26:14.812Z,92.40
2019-05-18T02:28:59.625Z,92.90
2019-05-18T02:31:44.409Z,93.00
2019-05-18T02:34:29.511Z,93.00
2019-05-18T02:37:13.895Z,93.00
2019-05-18T02:39:58.717Z,93.10
2019-05-18T02:42:43.794Z,93.10
2019-05-18T02:45:28.678Z,92.90
2019-05-18T02:48:13.283Z,93.00
2019-05-18T02:50:57.933Z,92.90
2019-05-18T02:53:42.302Z,93.00
2019-05-18T02:56:26.774Z,93.00
2019-05-18T02:59:12.607Z,93.10
2019-05-18T03:01:57.102Z,92.90
2019-05-18T03:04:41.534Z,92.80
2019-05-18T03:07:26.436Z,92.70
2019-05-18T03:10:10.801Z,92.70
2019-05-18T03:13:04.405Z,92.70
2019-05-18T03:15:49.359Z,92.80
2019-05-18T03:18:43.314Z,92.80
2019-05-18T03:21:27.842Z,92.70
2019-05-18T03:24:12.818Z,92.80
2019-05-18T03:26:57.433Z,92.70
2019-05-18T03:29:41.913Z,92.60
2019-05-18T03:32:26.507Z,92.50
2019-05-18T03:35:11.819Z,92.50
2019-05-18T03:37:56.036Z,92.50
2019-05-18T03:40:40.883Z,92.40
2019-05-18T03:43:25.879Z,92.30
2019-05-18T03:46:10.743Z,92.40
2019-05-18T03:48:55.867Z,92.30
2019-05-18T03:51:40.226Z,92.20
2019-05-18T03:54:25.321Z,92.00
2019-05-18T03:57:10.401Z,92.00
2019-05-18T03:59:55.391Z,92.00
2019-05-18T04:02:40.765Z,92.00
2019-05-18T04:05:27.072Z,92.10
2019-05-18T04:08:20.372Z,92.00
2019-05-18T04:11:05.831Z,92.00
2019-05-18T04:13:59.263Z,91.80
2019-05-18T04:16:43.850Z,91.50
2019-05-18T04:19:44.880Z,91.40
2019-05-18T04:22:15.016Z,91.20
2019-05-18T04:24:59.859Z,91.10
2019-05-18T04:27:44.535Z,90.90
2019-05-18T04:30:28.919Z,90.40
2019-05-18T04:33:21.946Z,90.20
2019-05-18T04:36:06.975Z,90.00
2019-05-18T04:38:51.366Z,89.80
2019-05-18T04:41:36.192Z,89.60
2019-05-18T04:44:20.577Z,89.70
2019-05-18T04:47:13.923Z,89.80
2019-05-18T04:50:05.031Z,89.20
2019-05-18T04:52:45.575Z,89.00
2019-05-18T04:55:30.575Z,88.60
2019-05-18T04:58:24.135Z,88.50
2019-05-18T05:01:09.262Z,88.50
2019-05-18T05:03:53.982Z,88.70
2019-05-18T05:10:10.026Z,90.00
2019-05-18T05:12:55.101Z,90.10
2019-05-18T05:15:49.063Z,90.10
2019-05-18T05:18:43.057Z,90.20
2019-05-18T05:21:27.606Z,90.20
2019-05-18T05:24:12.238Z,90.20
2019-05-18T05:26:57.119Z,90.10
2019-05-18T05:29:41.955Z,89.90
2019-05-18T05:32:26.602Z,89.00
2019-05-18T05:35:10.953Z,88.40
2019-05-18T05:38:04.282Z,87.30
2019-05-18T05:40:49.223Z,86.10
2019-05-18T05:43:33.702Z,85.10
2019-05-18T05:46:18.410Z,84.50
2019-05-18T05:49:02.582Z,84.10
2019-05-18T05:51:56.246Z,83.50
2019-05-18T05:54:40.863Z,83.00
2019-05-18T05:57:25.547Z,82.30
2019-05-18T06:00:09.754Z,82.30
2019-05-18T06:02:54.335Z,81.90
2019-05-18T06:05:47.667Z,81.40
2019-05-18T06:08:32.270Z,81.30
2019-05-18T06:11:16.600Z,81.40
2019-05-18T06:14:01.490Z,80.70
2019-05-18T06:16:46.184Z,80.80
2019-05-18T06:19:31.166Z,80.60
2019-05-18T06:22:16.216Z,79.90
2019-05-18T06:25:00.981Z,80.00
2019-05-18T06:27:45.679Z,79.80
2019-05-18T06:30:29.866Z,79.60
2019-05-18T06:33:23.687Z,78.90
2019-05-18T06:36:08.254Z,78.80
2019-05-18T06:38:53.485Z,78.70
2019-05-18T06:41:47.542Z,78.50
2019-05-18T06:44:41.071Z,78.40
2019-05-18T06:47:25.798Z,78.50
2019-05-18T06:50:12.214Z,78.50
2019-05-18T06:52:56.840Z,78.40
2019-05-18T06:55:41.506Z,78.20
2019-05-18T06:58:26.575Z,78.30
2019-05-18T07:01:11.021Z,78.40
2019-05-18T07:03:55.501Z,77.90
2019-05-18T07:06:49.698Z,77.10
2019-05-18T07:09:43.662Z,77.40
2019-05-18T07:12:37.110Z,77.30
2019-05-18T07:15:21.898Z,77.50
2019-05-18T07:18:06.845Z,77.70
2019-05-18T07:20:52.234Z,77.20
2019-05-18T07:23:46.002Z,77.30
2019-05-18T07:26:31.062Z,76.70
2019-05-18T07:29:24.686Z,76.90
2019-05-18T07:32:10.358Z,76.20
2019-05-18T07:34:55.617Z,76.20
2019-05-18T07:37:39.872Z,75.60
2019-05-18T07:40:33.450Z,75.10
2019-05-18T07:43:18.022Z,74.90
2019-05-18T07:46:02.902Z,74.70
2019-05-18T07:48:47.638Z,74.50
2019-05-18T07:51:37.058Z,74.60
2019-05-18T07:54:18.810Z,74.20
2019-05-18T07:57:04.020Z,74.10
2019-05-18T07:59:49.487Z,73.10
2019-05-18T08:02:34.498Z,71.90
2019-05-18T08:05:29.238Z,71.50
2019-05-18T08:08:13.763Z,71.30
2019-05-18T08:10:58.265Z,72.30
2019-05-18T08:13:42.724Z,73.10
2019-05-18T08:16:27.940Z,72.90
2019-05-18T08:19:12.383Z,73.30
2019-05-18T08:21:57.620Z,73.10
2019-05-18T08:24:41.921Z,73.10
2019-05-18T08:27:27.604Z,72.90
2019-05-18T08:30:12.604Z,72.10
2019-05-18T08:33:07.075Z,71.80
2019-05-18T08:35:53.057Z,70.10
2019-05-18T08:38:47.524Z,69.50
2019-05-18T08:50:42.883Z,70.10
2019-05-18T08:53:27.508Z,69.20
2019-05-18T08:56:24.892Z,69.00
2019-05-18T08:59:18.626Z,68.40
2019-05-18T09:02:03.689Z,68.10
2019-05-18T09:04:57.826Z,68.10
2019-05-18T09:07:51.631Z,67.20
2019-05-18T09:10:36.284Z,66.60
2019-05-18T09:13:21.574Z,67.80
2019-05-18T09:16:16.452Z,67.60
2019-05-18T09:19:01.504Z,66.80
2019-05-18T09:21:46.524Z,66.00
2019-05-18T09:24:34.707Z,66.10
2019-05-18T09:27:18.429Z,65.80
2019-05-18T09:29:52.175Z,65.70
2019-05-18T09:32:55.670Z,66.20
2019-05-18T09:35:49.088Z,66.70
2019-05-18T09:38:34.033Z,66.60
2019-05-18T09:41:20.692Z,67.20
2019-05-18T09:44:05.839Z,66.80
2019-05-18T09:46:59.582Z,65.40
2019-05-18T09:49:44.555Z,64.30
2019-05-18T09:52:46.312Z,64.20
2019-05-18T09:55:24.718Z,63.70
2019-05-18T09:58:09.110Z,63.90
2019-05-18T10:00:53.328Z,64.90
2019-05-18T10:03:49.546Z,64.10
2019-05-18T10:06:34.254Z,63.80
2019-05-18T10:09:18.812Z,61.90
2019-05-18T10:12:12.367Z,61.80
2019-05-18T10:14:57.438Z,61.80
2019-05-18T10:17:50.806Z,61.30
2019-05-18T10:20:35.247Z,60.30
2019-05-18T10:23:20.056Z,60.00
2019-05-18T10:26:14.030Z,59.60
2019-05-18T10:29:07.442Z,59.90
2019-05-18T10:31:52.522Z,59.80
2019-05-18T10:34:36.861Z,59.10
2019-05-18T10:37:21.459Z,59.20
2019-05-18T10:40:06.432Z,58.40
2019-05-18T10:42:51.317Z,58.30
2019-05-18T10:45:36.940Z,58.10
2019-05-18T10:48:30.722Z,57.90
2019-05-18T10:51:15.845Z,57.70
2019-05-18T10:54:09.621Z,57.40
2019-05-18T10:56:54.363Z,56.40
2019-05-18T10:59:39.192Z,56.40
2019-05-18T11:02:23.486Z,55.60
2019-05-18T11:05:08.406Z,55.30
2019-05-18T11:07:53.155Z,55.80
2019-05-18T11:10:38.138Z,55.00
2019-05-18T11:13:22.428Z,54.10
2019-05-18T11:16:07.212Z,53.50
2019-05-18T11:18:51.946Z,53.30
2019-05-18T11:21:36.209Z,53.00
2019-05-18T11:24:30.059Z,52.60
2019-05-18T11:27:14.328Z,50.90
2019-05-18T11:29:58.505Z,50.70
2019-05-18T11:32:51.915Z,50.90
2019-05-18T11:35:36.923Z,50.90
2019-05-18T11:38:21.678Z,50.20
2019-05-18T11:41:06.282Z,49.40
2019-05-18T11:43:50.409Z,48.60
2019-05-18T11:46:44.003Z,48.30
2019-05-18T11:49:29.216Z,48.60
2019-05-18T11:52:22.648Z,48.50
2019-05-18T11:55:07.306Z,48.10
2019-05-18T11:57:51.889Z,47.30
2019-05-18T12:00:36.762Z,47.00
2019-05-18T12:03:21.401Z,46.40
2019-05-18T12:06:06.494Z,46.20
2019-05-18T12:08:51.198Z,46.30
2019-05-18T12:11:36.085Z,45.80
2019-05-18T12:14:20.786Z,44.70
2019-05-18T12:17:05.882Z,44.70
2019-05-18T12:19:50.873Z,44.50
2019-05-18T12:22:35.692Z,44.80
2019-05-18T12:25:20.234Z,44.30
2019-05-18T12:28:04.783Z,45.10
2019-05-18T12:30:49.382Z,44.60
2019-05-18T12:33:44.047Z,44.60
2019-05-18T12:36:28.290Z,44.30
2019-05-18T12:39:13.229Z,44.50
2019-05-18T12:41:57.807Z,43.80
2019-05-18T12:44:42.510Z,43.20
2019-05-18T12:47:27.227Z,43.60
2019-05-18T12:50:20.685Z,44.30
2019-05-18T12:53:05.368Z,44.50
2019-05-18T12:55:49.625Z,45.10
2019-05-18T12:58:37.507Z,44.60
2019-05-18T13:01:20.762Z,44.70
2019-05-18T13:04:15.551Z,45.30
2019-05-18T13:07:00.538Z,45.80
2019-05-18T13:09:45.497Z,46.70
2019-05-18T13:12:39.126Z,46.70
2019-05-18T13:15:23.682Z,47.10
2019-05-18T13:18:08.534Z,46.80
2019-05-18T13:20:53.822Z,47.00
2019-05-18T13:23:38.319Z,47.90
2019-05-18T13:26:23.096Z,48.50
2019-05-18T13:29:08.173Z,48.10
2019-05-18T13:31:52.410Z,47.90
2019-05-18T13:34:36.960Z,48.30
2019-05-18T13:37:21.542Z,48.30
2019-05-18T13:40:14.947Z,47.80
2019-05-18T13:42:59.746Z,47.60
2019-05-18T13:45:44.291Z,48.20
2019-05-18T13:48:29.581Z,47.60
2019-05-18T13:51:14.562Z,48.00
2019-05-18T13:54:08.406Z,50.00
2019-05-18T13:57:02.496Z,50.70
2019-05-18T13:59:47.142Z,55.90
2019-05-18T14:02:31.267Z,58.80
2019-05-18T14:05:15.836Z,61.00
2019-05-18T14:08:09.347Z,64.10
2019-05-18T14:10:53.506Z,67.50
2019-05-18T14:13:38.321Z,68.70
2019-05-18T14:16:22.871Z,69.10
2019-05-18T14:19:16.417Z,69.10
2019-05-18T14:22:01.062Z,72.10
2019-05-18T14:24:46.274Z,74.00
2019-05-18T14:27:39.934Z,75.70
2019-05-18T14:30:24.877Z,78.10
2019-05-18T14:33:09.202Z,79.40
2019-05-18T14:35:53.945Z,80.00
2019-05-18T14:38:48.745Z,81.70
2019-05-18T14:41:33.565Z,81.10
2019-05-18T14:44:18.345Z,80.20
2019-05-18T14:47:02.699Z,80.40
2019-05-18T14:49:47.154Z,79.10
2019-05-18T14:52:32.109Z,81.60
2019-05-18T14:55:17.275Z,84.30
2019-05-18T14:58:02.158Z,86.10
2019-05-18T15:00:47.122Z,85.00
2019-05-18T15:03:31.659Z,84.70
2019-05-18T15:06:16.694Z,83.80
2019-05-18T15:09:01.185Z,84.30
2019-05-18T15:11:45.952Z,83.40
2019-05-18T15:14:30.910Z,84.80
2019-05-18T15:17:15.234Z,84.20
2019-05-18T15:20:00.206Z,84.20
2019-05-18T15:22:44.494Z,83.10
2019-05-18T15:25:49.596Z,79.70
2019-05-18T15:28:24.838Z,81.40
2019-05-18T15:31:18.260Z,80.60
2019-05-18T15:34:03.366Z,81.20
2019-05-18T15:36:47.846Z,80.20
2019-05-18T15:39:32.612Z,81.80
2019-05-18T15:42:17.601Z,82.40
2019-05-18T15:45:02.082Z,82.40
2019-05-18T15:47:46.578Z,83.10
2019-05-18T15:50:31.015Z,82.40
2019-05-18T15:53:24.428Z,81.40
2019-05-18T15:56:09.185Z,82.20
2019-05-18T15:58:53.969Z,85.20
2019-05-18T16:01:38.450Z,85.80
2019-05-18T16:04:23.175Z,86.50
2019-05-18T16:07:08.030Z,87.10
2019-05-18T16:09:52.689Z,87.40
2019-05-18T16:12:37.373Z,87.10
2019-05-18T16:15:21.897Z,86.40
2019-05-18T16:18:15.260Z,87.20
2019-05-18T16:21:00.096Z,86.90
2019-05-18T16:23:44.758Z,86.50
2019-05-18T16:26:29.074Z,85.00
2019-05-18T16:29:22.366Z,84.00
2019-05-18T16:32:06.809Z,80.70
2019-05-18T16:34:51.549Z,80.50
2019-05-18T16:37:36.579Z,78.60
2019-05-18T16:40:21.498Z,77.70
2019-05-18T16:43:05.586Z,76.90
2019-05-18T16:45:58.950Z,78.20
2019-05-18T16:48:44.055Z,78.20
2019-05-18T16:51:37.953Z,78.60
2019-05-18T16:54:22.308Z,78.20
2019-05-18T16:57:07.416Z,78.10
2019-05-18T16:59:52.042Z,77.60
2019-05-18T17:02:37.086Z,76.90
2019-05-18T17:05:21.593Z,76.70
2019-05-18T17:08:06.275Z,76.50
2019-05-18T17:10:50.461Z,76.50
2019-05-18T17:13:44.215Z,75.90
2019-05-18T17:16:28.840Z,75.40
2019-05-18T17:19:14.185Z,74.30
2019-05-18T17:22:07.374Z,73.10
2019-05-18T17:24:52.086Z,73.20
2019-05-18T17:27:46.814Z,72.50
2019-05-18T17:30:31.225Z,72.40
2019-05-18T17:33:15.787Z,72.20
2019-05-18T17:36:00.857Z,70.80
2019-05-18T17:38:46.879Z,70.90
2019-05-18T17:41:31.662Z,70.60
2019-05-18T17:44:16.626Z,70.90
2019-05-18T17:47:01.738Z,70.60
2019-05-18T17:49:46.566Z,69.70
2019-05-18T17:52:30.947Z,69.80
2019-05-18T17:55:16.520Z,69.70
2019-05-18T17:58:10.458Z,69.30
2019-05-18T18:00:56.195Z,72.50
2019-05-18T18:03:41.089Z,80.30
2019-05-18T18:06:25.487Z,84.20
2019-05-18T18:09:19.095Z,85.80
2019-05-18T18:12:03.917Z,84.10
2019-05-18T18:14:48.591Z,82.80
2019-05-18T18:17:33.189Z,75.70
2019-05-18T18:20:17.942Z,74.10
2019-05-18T18:23:02.731Z,77.10
2019-05-18T18:25:57.392Z,83.90
2019-05-18T18:28:51.424Z,87.50
2019-05-18T18:31:36.226Z,88.10
2019-05-18T18:34:20.685Z,87.90
2019-05-18T18:37:05.899Z,88.10
2019-05-18T18:40:00.159Z,87.90
2019-05-18T18:42:54.291Z,87.60
2019-05-18T18:45:48.062Z,85.80
2019-05-18T18:48:33.516Z,84.60
2019-05-18T18:51:26.850Z,81.50
2019-05-18T18:54:12.782Z,77.60
2019-05-18T18:56:57.318Z,84.60
2019-05-18T18:59:50.598Z,88.40
2019-05-18T19:02:35.607Z,89.20
2019-05-18T19:05:20.381Z,88.60
2019-05-18T19:08:04.591Z,86.80
2019-05-18T19:10:49.270Z,85.40
2019-05-18T19:13:33.854Z,84.00
2019-05-18T19:16:27.319Z,90.10
2019-05-18T19:19:11.695Z,90.60
2019-05-18T19:21:56.333Z,90.50
2019-05-18T19:24:40.917Z,90.10
2019-05-18T19:27:25.985Z,89.40
2019-05-18T19:30:20.673Z,89.00
2019-05-18T19:33:05.774Z,89.40
2019-05-18T19:35:59.816Z,88.70
2019-05-18T19:38:44.042Z,87.80
2019-05-18T19:41:28.610Z,84.20
2019-05-18T19:44:13.342Z,82.80
2019-05-18T19:46:58.135Z,81.90
2019-05-18T19:49:42.923Z,81.70
2019-05-18T19:52:27.778Z,80.80
2019-05-18T19:55:12.313Z,80.80
2019-05-18T19:58:09.071Z,80.20
2019-05-18T20:01:01.634Z,79.80
2019-05-18T20:03:47.163Z,79.20
2019-05-18T20:06:32.158Z,78.80
2019-05-18T20:09:16.486Z,78.70
2019-05-18T20:12:09.932Z,78.60
2019-05-18T20:14:54.627Z,78.10
2019-05-18T20:17:39.025Z,77.90
2019-05-18T20:20:23.508Z,77.80
2019-05-18T20:23:17.323Z,77.70
2019-05-18T20:26:11.052Z,77.90
2019-05-18T20:28:56.722Z,78.30
2019-05-18T20:31:41.955Z,78.50
2019-05-18T20:34:26.505Z,78.50
2019-05-18T20:37:11.288Z,78.20
2019-05-18T20:39:56.042Z,78.30
2019-05-18T20:42:40.558Z,78.30
2019-05-18T20:45:34.286Z,78.30
2019-05-18T20:48:28.162Z,78.20
2019-05-18T20:51:12.654Z,78.20
2019-05-18T20:53:57.533Z,78.50
2019-05-18T20:56:42.106Z,79.20
2019-05-18T20:59:27.114Z,80.70
2019-05-18T21:02:11.828Z,81.90
2019-05-18T21:04:56.746Z,83.20
2019-05-18T21:07:41.208Z,84.30
2019-05-18T21:10:26.445Z,84.90
2019-05-18T21:13:11.167Z,85.50
2019-05-18T21:16:05.369Z,85.70
2019-05-18T21:18:51.501Z,86.20
2019-05-18T21:21:36.137Z,86.50
2019-05-18T21:24:20.686Z,87.00
2019-05-18T21:27:13.871Z,87.50
2019-05-18T21:29:58.470Z,87.70
2019-05-18T21:32:43.267Z,87.80
2019-05-18T21:35:28.015Z,88.10
2019-05-18T21:38:13.550Z,88.50
2019-05-18T21:41:08.393Z,89.10
2019-05-18T21:43:53.330Z,89.60
2019-05-18T21:46:39.185Z,89.80
2019-05-18T21:49:24.884Z,90.00
2019-05-18T21:52:10.995Z,90.20
2019-05-18T21:54:55.927Z,90.00
2019-05-18T21:57:50.498Z,90.10
2019-05-18T22:00:36.249Z,90.20
2019-05-18T22:03:22.647Z,90.20
2019-05-18T22:06:07.615Z,90.10
2019-05-18T22:08:52.473Z,90.10
2019-05-18T22:11:37.075Z,90.20
2019-05-18T22:14:21.906Z,90.70
2019-05-18T22:17:06.742Z,91.20
2019-05-18T22:19:51.022Z,91.30
2019-05-18T22:22:36.686Z,91.00
2019-05-18T22:25:21.155Z,91.10
2019-05-18T22:28:05.834Z,91.40
2019-05-18T22:30:50.414Z,91.90
2019-05-18T22:33:34.745Z,92.00
2019-05-18T22:36:29.062Z,92.00
2019-05-18T22:39:22.768Z,92.20
2019-05-18T22:42:07.254Z,92.30
2019-05-18T22:44:52.357Z,92.80
2019-05-18T22:47:38.527Z,93.20
2019-05-18T22:50:23.043Z,93.40
2019-05-18T22:53:07.752Z,93.40
2019-05-18T22:55:52.847Z,93.40
2019-05-18T22:58:37.678Z,93.60
2019-05-18T23:01:22.117Z,93.60
2019-05-18T23:04:07.334Z,93.60
2019-05-18T23:06:52.034Z,93.50
2019-05-18T23:09:36.468Z,93.60
2019-05-18T23:12:21.298Z,93.70
2019-05-18T23:15:06.080Z,94.00
2019-05-18T23:17:50.953Z,94.10
2019-05-18T23:20:35.403Z,94.20
2019-05-18T23:23:29.126Z,94.10
2019-05-18T23:26:22.891Z,94.10
2019-05-18T23:29:07.484Z,94.10
2019-05-18T23:31:52.153Z,94.30
2019-05-18T23:34:37.065Z,94.20
2019-05-18T23:37:21.595Z,94.20
2019-05-18T23:40:06.160Z,94.20
2019-05-18T23:42:50.764Z,93.90
2019-05-18T23:45:44.107Z,93.70
2019-05-18T23:48:28.250Z,93.30
2019-05-18T23:51:21.830Z,92.30
2019-05-18T23:54:06.062Z,91.50
2019-05-18T23:56:51.201Z,91.10
2019-05-18T23:59:36.710Z,90.90
